Home > Products > Valid Products > TAF

000
FTUS43 KLMK 231700
TAFLEX
TAF
KLEX 231727Z 2318/2418 04004KT P6SM SCT250
     FM240900 14003KT 4SM BR SCT150
     FM241300 17004KT P6SM SCT150=



000
FTUS43 KLMK 231700
TAFSDF
TAF
KSDF 231727Z 2318/2424 13006KT P6SM SCT250
     FM240900 17003KT P6SM BKN150
     FM241400 23004KT P6SM SCT150=



000
FTUS43 KLMK 231700
TAFBWG
TAF
KBWG 231727Z 2318/2418 06004KT P6SM SCT250
     FM240800 00000KT 4SM BR BKN150
     FM241300 32003KT P6SM SCT150=



000
FTUS43 KLMK 231100
TAFLEX
TAF
KLEX 231120Z 2312/2412 04005KT P6SM BKN025
     FM231300 06004KT P6SM SCT250=



000
FTUS43 KLMK 231100
TAFSDF
TAF
KSDF 231120Z 2312/2418 00000KT P6SM SKC
     FM231500 VRB04KT P6SM SCT250=



000
FTUS43 KLMK 231100
TAFBWG
TAF
KBWG 231120Z 2312/2412 00000KT 3SM BR SKC
      TEMPO 2312/2313 1/2SM FG VV002
     FM231300 06004KT P6SM SCT250=



000
FTUS43 KLMK 230900 AAB
TAFBWG
TAF AMD
KBWG 230959Z 2310/2406 VRB03KT 3SM BR SKC
      TEMPO 2310/2313 1 1/2SM BR
     FM231300 06004KT P6SM SCT250=



000
FTUS43 KLMK 230900 AAB
TAFBWG
TAF AMD
KBWG 230959Z 2310/2406 VRB03KT 3SM BR SKC
      TEMPO 2310/2313 1 1/2SM BR
     FM231300 06004KT P6SM SCT250=



000
FTUS43 KLMK 230700 AAA
TAFBWG
TAF AMD
KBWG 230717Z 2307/2406 VRB03KT 4SM BR SKC
      TEMPO 2307/2311 2SM BR
     FM231300 06004KT P6SM SCT250=



000
FTUS43 KLMK 230500
TAFLEX
TAF
KLEX 230521Z 2306/2406 06005KT P6SM BKN025
     FM231300 06004KT P6SM SCT250=



000
FTUS43 KLMK 230500
TAFBWG
TAF
KBWG 230521Z 2306/2406 VRB03KT P6SM SKC
     FM231000 00000KT 6SM BR SKC
      TEMPO 2310/2313 3SM BR
     FM231300 06004KT P6SM SCT250=



000
FTUS43 KLMK 230500
TAFSDF
TAF
KSDF 230521Z 2306/2412 10006KT P6SM SKC
     FM231000 00000KT P6SM SKC
     FM231500 VRB04KT P6SM SCT250=



000
FTUS43 KLMK 230300 AAA
TAFLEX
TAF AMD
KLEX 230318Z 2303/2324 03004KT P6SM BKN030
     FM230600 VRB03KT P6SM SKC
     FM230900 VRB03KT 4SM BR SKC
     FM231300 06004KT P6SM SCT250=



000
FTUS43 KLMK 222300
TAFBWG
TAF
KBWG 222322Z 2300/2324 03004KT P6SM SKC
     FM231000 00000KT 3SM BR SKC
     FM231300 06004KT P6SM SCT250=



000
FTUS43 KLMK 222300
TAFSDF
TAF
KSDF 222322Z 2300/2406 02006KT P6SM SKC
     FM231000 00000KT P6SM SKC
     FM231500 08003KT P6SM SCT250=



000
FTUS43 KLMK 222300
TAFLEX
TAF
KLEX 222322Z 2300/2324 05004KT P6SM BKN035
     FM230300 03004KT P6SM SKC
     FM230900 VRB03KT 4SM BR SKC
     FM231300 06004KT P6SM SCT250=



000
FTUS43 KLMK 222100 AAB
TAFLEX
TAF AMD
KLEX 222155Z 2222/2318 04006KT P6SM BKN035
     FM222300 05004KT P6SM SKC
     FM231000 00000KT 4SM BR SKC
     FM231300 06004KT P6SM SCT250=



000
FTUS43 KLMK 222000 AAA
TAFLEX
TAF AMD
KLEX 222006Z 2220/2318 04006KT P6SM SCT035
     FM230100 05004KT P6SM SKC
     FM231000 00000KT 4SM BR SKC
     FM231300 06004KT P6SM SCT250=



000
FTUS43 KLMK 221700
TAFLEX
TAF
KLEX 221722Z 2218/2318 04006KT P6SM SCT018
      TEMPO 2218/2221 BKN018
     FM230100 05004KT P6SM SKC
     FM231000 00000KT 4SM BR SKC
     FM231300 06004KT P6SM SCT250=



000
FTUS43 KLMK 221700
TAFBWG
TAF
KBWG 221722Z 2218/2318 04008KT P6SM SKC
     FM230200 03003KT P6SM SKC
     FM231000 00000KT 3SM BR SKC
     FM231300 06004KT P6SM SCT250=



000
FTUS43 KLMK 221700
TAFSDF
TAF
KSDF 221722Z 2218/2324 02006KT P6SM SCT035
     FM230300 06003KT P6SM SKC
     FM231000 00000KT 5SM BR SKC
     FM231300 08003KT P6SM SCT250=



000
FTUS43 KLMK 221700
TAFSDF
TAF
KSDF 221722Z 2218/2324 02006KT P6SM SCT035
     FM230300 06003KT P6SM SKC
     FM231000 00000KT 5SM BR SKC
     FM231300 08003KT P6SM SCT250=



000
FTUS43 KLMK 221700
TAFLEX
TAF
KLEX 221722Z 2218/2318 04006KT P6SM SCT018
      TEMPO 2218/2221 BKN018
     FM230100 05004KT P6SM SKC
     FM231000 00000KT 4SM BR SKC
     FM231300 06004KT P6SM SCT250=



000
FTUS43 KLMK 221700
TAFBWG
TAF
KBWG 221722Z 2218/2318 04008KT P6SM SKC
     FM230200 03003KT P6SM SKC
     FM231000 00000KT 3SM BR SKC
     FM231300 06004KT P6SM SCT250=



000
FTUS43 KLMK 221100
TAFLEX
TAF
KLEX 221124Z 2212/2312 34006KT P6SM BKN035
     FM221600 01006KT P6SM SCT040
     FM222300 03004KT P6SM SKC
     FM231000 00000KT 3SM BR SKC=



000
FTUS43 KLMK 221100
TAFSDF
TAF
KSDF 221124Z 2212/2318 35006KT P6SM BKN035
     FM221400 02006KT P6SM SCT050
     FM230300 VRB03KT P6SM SKC
     FM231000 00000KT 3SM BR SKC
     FM231300 VRB03KT P6SM FEW250=



000
FTUS43 KLMK 221100
TAFBWG
TAF
KBWG 221124Z 2212/2312 04005KT P6SM SKC
     FM230200 00000KT P6SM SKC
     FM231000 00000KT 3SM BR SKC=



000
FTUS43 KLMK 220900 AAA
TAFBWG
TAF AMD
KBWG 220901Z 2209/2306 03004KT P6SM SKC
     FM221400 03006KT P6SM FEW040
     FM222300 00000KT P6SM SKC=



000
FTUS43 KLMK 220500
TAFBWG
TAF
KBWG 220520Z 2206/2306 00000KT P6SM SKC
      TEMPO 2209/2213 2SM BR
     FM221400 03006KT P6SM FEW040
     FM222300 00000KT P6SM SKC=



000
FTUS43 KLMK 220500
TAFLEX
TAF
KLEX 220520Z 2206/2306 03007KT P6SM SCT040
     FM221000 02006KT P6SM BKN030
     FM221400 01006KT P6SM SCT040
     FM222300 03004KT P6SM SKC=



000
FTUS43 KLMK 220500
TAFSDF
TAF
KSDF 220520Z 2206/2312 02006KT P6SM SCT050
     FM230100 VRB03KT P6SM SKC=



000
FTUS43 KLMK 220500
TAFLEX
TAF
KLEX 220520Z 2206/2306 03007KT P6SM SCT040
     FM221000 02006KT P6SM BKN030
     FM221400 01006KT P6SM SCT040
     FM222300 03004KT P6SM SKC=



000
FTUS43 KLMK 220500
TAFBWG
TAF
KBWG 220520Z 2206/2306 00000KT P6SM SKC
      TEMPO 2209/2213 2SM BR
     FM221400 03006KT P6SM FEW040
     FM222300 00000KT P6SM SKC=



000
FTUS43 KLMK 220500
TAFSDF
TAF
KSDF 220520Z 2206/2312 02006KT P6SM SCT050
     FM230100 VRB03KT P6SM SKC=



000
FTUS43 KLMK 212300
TAFLEX
TAF
KLEX 212320Z 2200/2224 01007KT P6SM BKN045
     FM220800 01007KT P6SM BKN035
     FM221400 01006KT P6SM SCT035=



000
FTUS43 KLMK 212300
TAFSDF
TAF
KSDF 212320Z 2200/2306 01006KT P6SM BKN050
     FM220400 01006KT P6SM FEW045
     FM221600 02006KT P6SM SCT045=



000
FTUS43 KLMK 212300
TAFLEX
TAF
KLEX 212320Z 2200/2224 01007KT P6SM BKN045
     FM220800 01007KT P6SM BKN035
     FM221400 01006KT P6SM SCT035=



000
FTUS43 KLMK 212300
TAFBWG
TAF
KBWG 212320Z 2200/2224 01006KT P6SM FEW050
     FM220300 01003KT P6SM SKC
     FM221400 02006KT P6SM FEW035=



000
FTUS43 KLMK 212300
TAFSDF
TAF
KSDF 212320Z 2200/2306 01006KT P6SM BKN050
     FM220400 01006KT P6SM FEW045
     FM221600 02006KT P6SM SCT045=



000
FTUS43 KLMK 212300
TAFBWG
TAF
KBWG 212320Z 2200/2224 01006KT P6SM FEW050
     FM220300 01003KT P6SM SKC
     FM221400 02006KT P6SM FEW035=



000
FTUS43 KLMK 211700
TAFSDF
TAF
KSDF 211732Z 2118/2224 33009KT P6SM BKN050
     FM220000 01006KT P6SM SCT040
     FM220400 01006KT P6SM SKC=



000
FTUS43 KLMK 211700
TAFBWG
TAF
KBWG 211732Z 2118/2218 01006KT P6SM FEW040
     FM220100 01003KT P6SM SKC
      TEMPO 2209/2212 3SM BR
     FM221200 02006KT P6SM SKC=



000
FTUS43 KLMK 211700
TAFLEX
TAF
KLEX 211732Z 2118/2218 33009KT P6SM BKN050
     FM220000 01007KT P6SM BKN050
     FM221000 01006KT P6SM SCT020=



000
FTUS43 KLMK 211200 AAA
TAFBWG
TAF AMD
KBWG 211259Z 2113/2212 00000KT P6SM SKC
     FM211500 35007KT P6SM SCT040
     FM220100 00000KT P6SM SKC
      TEMPO 2209/2212 1SM BR=



000
FTUS43 KLMK 211100
TAFLEX
TAF
KLEX 211129Z 2112/2212 30004KT P6SM BKN050
     FM211400 33009KT P6SM BKN040
     FM220000 01005KT P6SM SCT040=



000
FTUS43 KLMK 211100
TAFSDF
TAF
KSDF 211129Z 2112/2218 25006KT P6SM SCT070
     FM211400 33009KT P6SM BKN040
     FM220100 01006KT P6SM SKC=



000
FTUS43 KLMK 211100
TAFBWG
TAF
KBWG 211129Z 2112/2212 00000KT 2SM BR SKC
      TEMPO 2112/2113 1/4SM BCFG SCT002
     FM211500 35007KT P6SM SCT040
     FM220100 00000KT P6SM SKC
      TEMPO 2209/2212 1SM BR=



000
FTUS43 KLMK 211100
TAFLEX
TAF
KLEX 211129Z 2112/2212 30004KT P6SM BKN050
     FM211400 33009KT P6SM BKN040
     FM220000 01005KT P6SM SCT040=



000
FTUS43 KLMK 211100
TAFBWG
TAF
KBWG 211129Z 2112/2212 00000KT 2SM BR SKC
      TEMPO 2112/2113 1/4SM BCFG SCT002
     FM211500 35007KT P6SM SCT040
     FM220100 00000KT P6SM SKC
      TEMPO 2209/2212 1SM BR=



000
FTUS43 KLMK 211100
TAFSDF
TAF
KSDF 211129Z 2112/2218 25006KT P6SM SCT070
     FM211400 33009KT P6SM BKN040
     FM220100 01006KT P6SM SKC=



000
FTUS43 KLMK 210900 AAA
TAFBWG
TAF AMD
KBWG 210904Z 2109/2206 00000KT P6SM SKC
      TEMPO 2109/2112 1/2SM BCFG SCT002
     FM211400 35007KT P6SM SCT040
     FM220100 00000KT P6SM SKC=



000
FTUS43 KLMK 210500
TAFBWG
TAF
KBWG 210533Z 2106/2206 25005KT P6SM SCT070
     FM211400 35007KT P6SM SCT040
     FM220100 00000KT P6SM SKC=



000
FTUS43 KLMK 210500
TAFLEX
TAF
KLEX 210533Z 2106/2206 25005KT P6SM SCT050
     FM210900 30004KT P6SM BKN030
     FM211400 34009KT P6SM BKN035
     FM220000 01005KT P6SM SKC=



000
FTUS43 KLMK 210500
TAFSDF
TAF
KSDF 210533Z 2106/2212 25006KT P6SM SCT070
     FM210800 31005KT P6SM BKN035
     FM211400 34009KT P6SM BKN035
     FM220100 01006KT P6SM SKC=



000
FTUS43 KLMK 210100 AAC
TAFSDF
TAF AMD
KSDF 210110Z 2101/2206 VRB05KT P6SM SCT045
     FM210300 24006KT P6SM SCT045
     FM210800 31006KT P6SM BKN035
     FM211400 34009KT P6SM BKN035=



000
FTUS43 KLMK 210000 AAB
TAFSDF
TAF AMD
KSDF 210036Z 2101/2206 VRB05KT P6SM VCSH SCT045
      TEMPO 2101/2102 5SM -SHRA BKN060
     FM210300 24006KT P6SM SCT045
     FM210800 31006KT P6SM BKN035
     FM211400 34009KT P6SM BKN035=



000
FTUS43 KLMK 210000 AAA
TAFSDF
TAF AMD
KSDF 210012Z 2100/2206 VRB05KT P6SM VCSH SCT045
     FM210300 24006KT P6SM SCT045
     FM210800 31006KT P6SM BKN035
     FM211400 34009KT P6SM BKN035=



000
FTUS43 KLMK 202300
TAFLEX
TAF
KLEX 202320Z 2100/2124 25005KT P6SM SCT050
     FM210900 30004KT P6SM BKN035
     FM211400 31009KT P6SM BKN035=



000
FTUS43 KLMK 202300
TAFSDF
TAF
KSDF 202320Z 2100/2206 VRB05KT P6SM SCT045
     FM210800 31006KT P6SM BKN035
     FM211400 34009KT P6SM BKN035=



000
FTUS43 KLMK 202300
TAFBWG
TAF
KBWG 202320Z 2100/2124 21007KT P6SM SCT035
     FM211500 34006KT P6SM BKN040
     FM211900 35009KT P6SM SCT040=



    US Dept of Commerce
    National Oceanic and Atmospheric Administration
    National Weather Service
    1325 East West Highway
    Silver Spring, MD 20910
    Page Author: NWS Internet Services Team
Disclaimer
Information Quality
Credits
Glossary
Privacy Policy
Freedom of Information Act (FOIA)
About Us
Career Opportunities